sensor_id;sensor_type;location;lat;lon;timestamp;temperature;humidity
8591;DHT22;4333;48.322;14.340;2022-12-05T00:01:31;3.40;99.90
8591;DHT22;4333;48.322;14.340;2022-12-05T00:04:08;3.40;99.90
8591;DHT22;4333;48.322;14.340;2022-12-05T00:06:37;3.40;99.90
8591;DHT22;4333;48.322;14.340;2022-12-05T00:09:07;3.40;99.90
8591;DHT22;4333;48.322;14.340;2022-12-05T00:11:39;3.40;99.90
8591;DHT22;4333;48.322;14.340;2022-12-05T00:14:06;3.30;99.90
8591;DHT22;4333;48.322;14.340;2022-12-05T00:16:36;3.30;99.90
8591;DHT22;4333;48.322;14.340;2022-12-05T00:19:05;3.00;99.90
8591;DHT22;4333;48.322;14.340;2022-12-05T00:21:33;2.70;99.90
8591;DHT22;4333;48.322;14.340;2022-12-05T00:24:12;2.60;99.90
8591;DHT22;4333;48.322;14.340;2022-12-05T00:26:39;2.70;99.90
8591;DHT22;4333;48.322;14.340;2022-12-05T00:29:08;2.60;99.90
8591;DHT22;4333;48.322;14.340;2022-12-05T00:31:36;2.50;99.90
8591;DHT22;4333;48.322;14.340;2022-12-05T00:34:04;2.40;99.90
8591;DHT22;4333;48.322;14.340;2022-12-05T00:36:35;2.50;99.90
8591;DHT22;4333;48.322;14.340;2022-12-05T00:39:05;2.60;99.90
8591;DHT22;4333;48.322;14.340;2022-12-05T00:41:32;2.80;99.90
8591;DHT22;4333;48.322;14.340;2022-12-05T00:44:02;2.90;99.90
8591;DHT22;4333;48.322;14.340;2022-12-05T00:46:31;2.90;99.90
8591;DHT22;4333;48.322;14.340;2022-12-05T00:48:59;2.60;99.90
8591;DHT22;4333;48.322;14.340;2022-12-05T00:51:35;2.40;99.90
8591;DHT22;4333;48.322;14.340;2022-12-05T00:54:15;2.50;99.90
8591;DHT22;4333;48.322;14.340;2022-12-05T00:56:42;2.50;99.90
8591;DHT22;4333;48.322;14.340;2022-12-05T00:59:18;2.60;99.90
8591;DHT22;4333;48.322;14.340;2022-12-05T01:01:49;2.70;99.90
8591;DHT22;4333;48.322;14.340;2022-12-05T01:04:22;2.70;99.90
8591;DHT22;4333;48.322;14.340;2022-12-05T01:06:50;2.60;99.90
8591;DHT22;4333;48.322;14.340;2022-12-05T01:09:19;2.60;99.90
8591;DHT22;4333;48.322;14.340;2022-12-05T01:11:45;2.80;99.90
8591;DHT22;4333;48.322;14.340;2022-12-05T01:14:16;2.80;99.90
8591;DHT22;4333;48.322;14.340;2022-12-05T01:16:44;2.70;99.90
8591;DHT22;4333;48.322;14.340;2022-12-05T01:19:16;2.70;99.90
8591;DHT22;4333;48.322;14.340;2022-12-05T01:21:45;2.60;99.90
8591;DHT22;4333;48.322;14.340;2022-12-05T01:24:14;2.60;99.90
8591;DHT22;4333;48.322;14.340;2022-12-05T01:26:44;2.60;99.90
8591;DHT22;4333;48.322;14.340;2022-12-05T01:29:12;2.70;99.90
8591;DHT22;4333;48.322;14.340;2022-12-05T01:31:44;2.70;99.90
8591;DHT22;4333;48.322;14.340;2022-12-05T01:34:14;2.80;99.90
8591;DHT22;4333;48.322;14.340;2022-12-05T01:36:43;3.00;99.90
8591;DHT22;4333;48.322;14.340;2022-12-05T01:39:10;3.00;99.90
8591;DHT22;4333;48.322;14.340;2022-12-05T01:41:40;3.00;99.90
8591;DHT22;4333;48.322;14.340;2022-12-05T01:46:53;3.10;99.90
8591;DHT22;4333;48.322;14.340;2022-12-05T01:49:27;3.10;99.90
8591;DHT22;4333;48.322;14.340;2022-12-05T01:52:03;3.10;99.90
8591;DHT22;4333;48.322;14.340;2022-12-05T01:54:38;3.10;99.90
8591;DHT22;4333;48.322;14.340;2022-12-05T01:57:10;3.10;99.90
8591;DHT22;4333;48.322;14.340;2022-12-05T01:59:44;3.10;99.90
8591;DHT22;4333;48.322;14.340;2022-12-05T02:02:12;3.20;99.90
8591;DHT22;4333;48.322;14.340;2022-12-05T02:04:53;3.20;99.90
8591;DHT22;4333;48.322;14.340;2022-12-05T02:07:24;3.30;99.90
8591;DHT22;4333;48.322;14.340;2022-12-05T02:09:53;3.40;99.90
8591;DHT22;4333;48.322;14.340;2022-12-05T02:12:21;3.40;99.90
8591;DHT22;4333;48.322;14.340;2022-12-05T02:21:09;3.20;99.90
8591;DHT22;4333;48.322;14.340;2022-12-05T02:29:36;3.30;99.90
8591;DHT22;4333;48.322;14.340;2022-12-05T02:40:55;3.40;99.90
8591;DHT22;4333;48.322;14.340;2022-12-05T02:44:03;3.50;99.90
8591;DHT22;4333;48.322;14.340;2022-12-05T02:46:26;3.60;99.90
8591;DHT22;4333;48.322;14.340;2022-12-05T02:49:16;3.60;99.90
8591;DHT22;4333;48.322;14.340;2022-12-05T02:51:47;3.70;99.90
8591;DHT22;4333;48.322;14.340;2022-12-05T02:54:22;3.70;99.90
8591;DHT22;4333;48.322;14.340;2022-12-05T02:56:51;3.70;99.90
8591;DHT22;4333;48.322;14.340;2022-12-05T02:59:21;3.80;99.90
8591;DHT22;4333;48.322;14.340;2022-12-05T03:01:50;3.80;99.90
8591;DHT22;4333;48.322;14.340;2022-12-05T03:04:20;3.80;99.90
8591;DHT22;4333;48.322;14.340;2022-12-05T03:07:13;3.90;99.90
8591;DHT22;4333;48.322;14.340;2022-12-05T03:09:53;3.90;99.90
8591;DHT22;4333;48.322;14.340;2022-12-05T03:12:35;4.00;99.90
8591;DHT22;4333;48.322;14.340;2022-12-05T03:15:12;4.00;99.90
8591;DHT22;4333;48.322;14.340;2022-12-05T03:17:48;4.00;99.90
8591;DHT22;4333;48.322;14.340;2022-12-05T03:20:25;4.00;99.90
8591;DHT22;4333;48.322;14.340;2022-12-05T03:23:13;4.00;99.90
8591;DHT22;4333;48.322;14.340;2022-12-05T03:26:05;4.10;99.90
8591;DHT22;4333;48.322;14.340;2022-12-05T03:32:18;4.00;99.90
8591;DHT22;4333;48.322;14.340;2022-12-05T03:37:42;4.00;99.90
8591;DHT22;4333;48.322;14.340;2022-12-05T03:40:32;4.00;99.90
8591;DHT22;4333;48.322;14.340;2022-12-05T03:48:51;4.00;99.90
8591;DHT22;4333;48.322;14.340;2022-12-05T03:51:24;4.10;99.90
8591;DHT22;4333;48.322;14.340;2022-12-05T03:54:19;4.10;99.90
8591;DHT22;4333;48.322;14.340;2022-12-05T03:57:52;4.10;99.90
8591;DHT22;4333;48.322;14.340;2022-12-05T04:00:04;4.10;99.90
8591;DHT22;4333;48.322;14.340;2022-12-05T04:07:59;4.00;99.90
8591;DHT22;4333;48.322;14.340;2022-12-05T04:10:33;4.00;99.90
8591;DHT22;4333;48.322;14.340;2022-12-05T04:16:09;4.10;99.90
8591;DHT22;4333;48.322;14.340;2022-12-05T04:19:16;4.10;99.90
8591;DHT22;4333;48.322;14.340;2022-12-05T04:21:53;4.00;99.90
8591;DHT22;4333;48.322;14.340;2022-12-05T04:24:25;4.00;99.90
8591;DHT22;4333;48.322;14.340;2022-12-05T04:27:27;4.00;99.90
8591;DHT22;4333;48.322;14.340;2022-12-05T04:30:02;4.00;99.90
8591;DHT22;4333;48.322;14.340;2022-12-05T04:32:34;4.00;99.90
8591;DHT22;4333;48.322;14.340;2022-12-05T04:35:10;3.90;99.90
8591;DHT22;4333;48.322;14.340;2022-12-05T04:37:41;3.90;99.90
8591;DHT22;4333;48.322;14.340;2022-12-05T04:40:15;3.90;99.90
8591;DHT22;4333;48.322;14.340;2022-12-05T04:42:45;4.00;99.90
8591;DHT22;4333;48.322;14.340;2022-12-05T04:45:14;4.00;99.90
8591;DHT22;4333;48.322;14.340;2022-12-05T04:47:46;4.00;99.90
8591;DHT22;4333;48.322;14.340;2022-12-05T04:50:15;4.00;99.90
8591;DHT22;4333;48.322;14.340;2022-12-05T04:52:47;4.00;99.90
8591;DHT22;4333;48.322;14.340;2022-12-05T04:55:20;4.00;99.90
8591;DHT22;4333;48.322;14.340;2022-12-05T04:58:09;4.00;99.90
8591;DHT22;4333;48.322;14.340;2022-12-05T05:01:04;4.00;99.90
8591;DHT22;4333;48.322;14.340;2022-12-05T05:06:03;4.00;99.90
8591;DHT22;4333;48.322;14.340;2022-12-05T05:08:44;4.00;99.90
8591;DHT22;4333;48.322;14.340;2022-12-05T05:13:42;4.00;99.90
8591;DHT22;4333;48.322;14.340;2022-12-05T05:16:19;4.10;99.90
8591;DHT22;4333;48.322;14.340;2022-12-05T05:18:46;4.10;99.90
8591;DHT22;4333;48.322;14.340;2022-12-05T05:21:26;4.10;99.90
8591;DHT22;4333;48.322;14.340;2022-12-05T05:23:53;4.10;99.90
8591;DHT22;4333;48.322;14.340;2022-12-05T05:26:19;4.00;99.90
8591;DHT22;4333;48.322;14.340;2022-12-05T05:28:45;4.00;99.90
8591;DHT22;4333;48.322;14.340;2022-12-05T05:31:18;4.00;99.90
8591;DHT22;4333;48.322;14.340;2022-12-05T05:33:53;4.00;99.90
8591;DHT22;4333;48.322;14.340;2022-12-05T05:36:21;4.00;99.90
8591;DHT22;4333;48.322;14.340;2022-12-05T05:38:49;4.00;99.90
8591;DHT22;4333;48.322;14.340;2022-12-05T05:41:26;4.10;99.90
8591;DHT22;4333;48.322;14.340;2022-12-05T05:43:56;4.00;99.90
8591;DHT22;4333;48.322;14.340;2022-12-05T05:46:27;4.10;99.90
8591;DHT22;4333;48.322;14.340;2022-12-05T05:48:59;4.00;99.90
8591;DHT22;4333;48.322;14.340;2022-12-05T05:51:27;4.00;99.90
8591;DHT22;4333;48.322;14.340;2022-12-05T05:53:55;4.00;99.90
8591;DHT22;4333;48.322;14.340;2022-12-05T05:56:24;4.00;99.90
8591;DHT22;4333;48.322;14.340;2022-12-05T05:58:59;4.00;99.90
8591;DHT22;4333;48.322;14.340;2022-12-05T06:01:28;4.00;99.90
8591;DHT22;4333;48.322;14.340;2022-12-05T06:03:54;4.00;99.90
8591;DHT22;4333;48.322;14.340;2022-12-05T06:06:21;4.10;99.90
8591;DHT22;4333;48.322;14.340;2022-12-05T06:08:47;4.00;99.90
8591;DHT22;4333;48.322;14.340;2022-12-05T06:11:15;4.00;99.90
8591;DHT22;4333;48.322;14.340;2022-12-05T06:13:47;4.00;99.90
8591;DHT22;4333;48.322;14.340;2022-12-05T06:16:17;4.00;99.90
8591;DHT22;4333;48.322;14.340;2022-12-05T06:18:48;4.00;99.90
8591;DHT22;4333;48.322;14.340;2022-12-05T06:21:22;4.00;99.90
8591;DHT22;4333;48.322;14.340;2022-12-05T06:24:08;4.00;99.90
8591;DHT22;4333;48.322;14.340;2022-12-05T06:26:34;3.90;99.90
8591;DHT22;4333;48.322;14.340;2022-12-05T06:29:03;3.80;99.90
8591;DHT22;4333;48.322;14.340;2022-12-05T06:31:28;3.80;99.90
8591;DHT22;4333;48.322;14.340;2022-12-05T06:34:04;3.80;99.90
8591;DHT22;4333;48.322;14.340;2022-12-05T06:36:32;3.80;99.90
8591;DHT22;4333;48.322;14.340;2022-12-05T06:38:59;3.80;99.90
8591;DHT22;4333;48.322;14.340;2022-12-05T06:41:27;3.80;99.90
8591;DHT22;4333;48.322;14.340;2022-12-05T06:43:55;3.80;99.90
8591;DHT22;4333;48.322;14.340;2022-12-05T06:46:21;3.70;99.90
8591;DHT22;4333;48.322;14.340;2022-12-05T06:48:55;3.80;99.90
8591;DHT22;4333;48.322;14.340;2022-12-05T06:51:21;3.80;99.90
8591;DHT22;4333;48.322;14.340;2022-12-05T06:53:47;3.80;99.90
8591;DHT22;4333;48.322;14.340;2022-12-05T06:56:16;3.80;99.90
8591;DHT22;4333;48.322;14.340;2022-12-05T06:58:48;3.80;99.90
8591;DHT22;4333;48.322;14.340;2022-12-05T07:01:17;3.80;99.90
8591;DHT22;4333;48.322;14.340;2022-12-05T07:04:15;3.80;99.90
8591;DHT22;4333;48.322;14.340;2022-12-05T07:06:45;3.80;99.90
8591;DHT22;4333;48.322;14.340;2022-12-05T07:09:18;3.80;99.90
8591;DHT22;4333;48.322;14.340;2022-12-05T07:11:53;3.80;99.90
8591;DHT22;4333;48.322;14.340;2022-12-05T07:14:22;3.80;99.90
8591;DHT22;4333;48.322;14.340;2022-12-05T07:16:51;3.80;99.90
8591;DHT22;4333;48.322;14.340;2022-12-05T07:19:16;3.80;99.90
8591;DHT22;4333;48.322;14.340;2022-12-05T07:21:45;3.80;99.90
8591;DHT22;4333;48.322;14.340;2022-12-05T07:24:13;3.80;99.90
8591;DHT22;4333;48.322;14.340;2022-12-05T07:26:38;3.90;99.90
8591;DHT22;4333;48.322;14.340;2022-12-05T07:29:07;3.90;99.90
8591;DHT22;4333;48.322;14.340;2022-12-05T07:31:35;3.90;99.90
8591;DHT22;4333;48.322;14.340;2022-12-05T07:34:06;3.90;99.90
8591;DHT22;4333;48.322;14.340;2022-12-05T07:36:42;3.90;99.90
8591;DHT22;4333;48.322;14.340;2022-12-05T07:39:08;3.90;99.90
8591;DHT22;4333;48.322;14.340;2022-12-05T07:41:34;4.00;99.90
8591;DHT22;4333;48.322;14.340;2022-12-05T07:44:02;4.00;99.90
8591;DHT22;4333;48.322;14.340;2022-12-05T07:46:31;4.00;99.90
8591;DHT22;4333;48.322;14.340;2022-12-05T07:48:59;4.00;99.90
8591;DHT22;4333;48.322;14.340;2022-12-05T07:51:25;4.00;99.90
8591;DHT22;4333;48.322;14.340;2022-12-05T07:53:57;4.10;99.90
8591;DHT22;4333;48.322;14.340;2022-12-05T07:56:24;4.10;99.90
8591;DHT22;4333;48.322;14.340;2022-12-05T07:58:54;4.10;99.90
8591;DHT22;4333;48.322;14.340;2022-12-05T08:01:27;4.10;99.90
8591;DHT22;4333;48.322;14.340;2022-12-05T08:03:54;4.10;99.90
8591;DHT22;4333;48.322;14.340;2022-12-05T08:06:30;4.10;99.90
8591;DHT22;4333;48.322;14.340;2022-12-05T08:09:03;4.10;99.90
8591;DHT22;4333;48.322;14.340;2022-12-05T08:11:32;4.10;99.90
8591;DHT22;4333;48.322;14.340;2022-12-05T08:14:08;4.20;99.90
8591;DHT22;4333;48.322;14.340;2022-12-05T08:16:39;4.10;99.90
8591;DHT22;4333;48.322;14.340;2022-12-05T08:19:16;4.00;99.90
8591;DHT22;4333;48.322;14.340;2022-12-05T08:21:45;4.00;99.90
8591;DHT22;4333;48.322;14.340;2022-12-05T08:24:11;4.10;99.90
8591;DHT22;4333;48.322;14.340;2022-12-05T08:26:44;4.10;99.90
8591;DHT22;4333;48.322;14.340;2022-12-05T08:29:14;4.10;99.90
8591;DHT22;4333;48.322;14.340;2022-12-05T08:31:47;4.10;99.90
8591;DHT22;4333;48.322;14.340;2022-12-05T08:34:17;4.20;99.90
8591;DHT22;4333;48.322;14.340;2022-12-05T08:36:44;4.20;99.90
8591;DHT22;4333;48.322;14.340;2022-12-05T08:39:14;4.20;99.90
8591;DHT22;4333;48.322;14.340;2022-12-05T08:41:45;4.20;99.90
8591;DHT22;4333;48.322;14.340;2022-12-05T08:44:14;4.20;99.90
8591;DHT22;4333;48.322;14.340;2022-12-05T08:46:45;4.20;99.90
8591;DHT22;4333;48.322;14.340;2022-12-05T08:49:14;4.30;99.90
8591;DHT22;4333;48.322;14.340;2022-12-05T08:51:42;4.30;99.90
8591;DHT22;4333;48.322;14.340;2022-12-05T08:54:16;4.30;99.90
8591;DHT22;4333;48.322;14.340;2022-12-05T08:56:45;4.30;99.90
8591;DHT22;4333;48.322;14.340;2022-12-05T08:59:16;4.30;99.90
8591;DHT22;4333;48.322;14.340;2022-12-05T09:01:44;4.30;99.90
8591;DHT22;4333;48.322;14.340;2022-12-05T09:04:14;4.20;99.90
8591;DHT22;4333;48.322;14.340;2022-12-05T09:06:52;4.20;99.90
8591;DHT22;4333;48.322;14.340;2022-12-05T09:09:21;4.20;99.90
8591;DHT22;4333;48.322;14.340;2022-12-05T09:11:49;4.30;99.90
8591;DHT22;4333;48.322;14.340;2022-12-05T09:14:18;4.40;99.90
8591;DHT22;4333;48.322;14.340;2022-12-05T09:16:46;4.40;99.90
8591;DHT22;4333;48.322;14.340;2022-12-05T09:19:16;4.50;99.90
8591;DHT22;4333;48.322;14.340;2022-12-05T09:21:46;4.50;99.90
8591;DHT22;4333;48.322;14.340;2022-12-05T09:24:15;4.40;99.90
8591;DHT22;4333;48.322;14.340;2022-12-05T09:26:43;4.40;99.90
8591;DHT22;4333;48.322;14.340;2022-12-05T09:29:12;4.40;99.90
8591;DHT22;4333;48.322;14.340;2022-12-05T09:31:41;4.30;99.90
8591;DHT22;4333;48.322;14.340;2022-12-05T09:34:09;4.40;99.90
8591;DHT22;4333;48.322;14.340;2022-12-05T09:36:39;4.30;99.90
8591;DHT22;4333;48.322;14.340;2022-12-05T09:39:09;4.30;99.90
8591;DHT22;4333;48.322;14.340;2022-12-05T09:41:57;4.30;99.90
8591;DHT22;4333;48.322;14.340;2022-12-05T09:44:56;4.40;99.90
8591;DHT22;4333;48.322;14.340;2022-12-05T09:47:52;4.40;99.90
8591;DHT22;4333;48.322;14.340;2022-12-05T09:50:23;4.40;99.90
8591;DHT22;4333;48.322;14.340;2022-12-05T09:56:10;4.40;99.90
8591;DHT22;4333;48.322;14.340;2022-12-05T09:58:43;4.50;99.90
8591;DHT22;4333;48.322;14.340;2022-12-05T10:06:33;4.50;99.90
8591;DHT22;4333;48.322;14.340;2022-12-05T10:09:33;4.50;99.90
8591;DHT22;4333;48.322;14.340;2022-12-05T10:19:58;4.60;99.90
8591;DHT22;4333;48.322;14.340;2022-12-05T10:22:29;4.50;99.90
8591;DHT22;4333;48.322;14.340;2022-12-05T10:25:02;4.50;99.90
8591;DHT22;4333;48.322;14.340;2022-12-05T10:27:37;4.50;99.90
8591;DHT22;4333;48.322;14.340;2022-12-05T10:35:24;4.40;99.90
8591;DHT22;4333;48.322;14.340;2022-12-05T10:37:56;4.50;99.90
8591;DHT22;4333;48.322;14.340;2022-12-05T10:40:29;4.50;99.90
8591;DHT22;4333;48.322;14.340;2022-12-05T10:43:00;4.40;99.90
8591;DHT22;4333;48.322;14.340;2022-12-05T10:45:42;4.50;99.90
8591;DHT22;4333;48.322;14.340;2022-12-05T10:48:13;4.50;99.90
8591;DHT22;4333;48.322;14.340;2022-12-05T10:50:42;4.60;99.90
8591;DHT22;4333;48.322;14.340;2022-12-05T10:53:55;4.60;99.90
8591;DHT22;4333;48.322;14.340;2022-12-05T10:56:02;4.60;99.90
8591;DHT22;4333;48.322;14.340;2022-12-05T10:58:31;4.70;99.90
8591;DHT22;4333;48.322;14.340;2022-12-05T11:01:08;4.70;99.90
8591;DHT22;4333;48.322;14.340;2022-12-05T11:03:38;4.60;99.90
8591;DHT22;4333;48.322;14.340;2022-12-05T11:06:26;4.60;99.90
8591;DHT22;4333;48.322;14.340;2022-12-05T11:12:23;4.30;99.90
8591;DHT22;4333;48.322;14.340;2022-12-05T11:17:53;4.30;99.90
8591;DHT22;4333;48.322;14.340;2022-12-05T11:22:53;4.30;99.90
8591;DHT22;4333;48.322;14.340;2022-12-05T11:25:29;4.30;99.90
8591;DHT22;4333;48.322;14.340;2022-12-05T11:27:57;4.30;99.90
8591;DHT22;4333;48.322;14.340;2022-12-05T11:30:26;4.40;99.90
8591;DHT22;4333;48.322;14.340;2022-12-05T11:33:19;4.30;99.90
8591;DHT22;4333;48.322;14.340;2022-12-05T11:35:52;4.40;99.90
8591;DHT22;4333;48.322;14.340;2022-12-05T11:38:31;4.30;99.90
8591;DHT22;4333;48.322;14.340;2022-12-05T11:41:16;4.40;99.90
8591;DHT22;4333;48.322;14.340;2022-12-05T11:44:05;4.30;99.90
8591;DHT22;4333;48.322;14.340;2022-12-05T11:52:23;4.20;99.90
8591;DHT22;4333;48.322;14.340;2022-12-05T11:55:25;4.30;99.90
8591;DHT22;4333;48.322;14.340;2022-12-05T12:12:58;4.20;99.90
8591;DHT22;4333;48.322;14.340;2022-12-05T12:15:52;4.20;99.90
8591;DHT22;4333;48.322;14.340;2022-12-05T12:26:46;4.20;99.90
8591;DHT22;4333;48.322;14.340;2022-12-05T12:40:13;4.30;99.90
8591;DHT22;4333;48.322;14.340;2022-12-05T12:50:51;4.20;99.90
8591;DHT22;4333;48.322;14.340;2022-12-05T12:53:45;4.10;99.90
8591;DHT22;4333;48.322;14.340;2022-12-05T13:01:50;4.10;99.90
8591;DHT22;4333;48.322;14.340;2022-12-05T13:05:03;4.10;99.90
8591;DHT22;4333;48.322;14.340;2022-12-05T13:07:26;4.10;99.90
8591;DHT22;4333;48.322;14.340;2022-12-05T13:10:04;4.10;99.90
8591;DHT22;4333;48.322;14.340;2022-12-05T13:12:36;4.20;99.90
8591;DHT22;4333;48.322;14.340;2022-12-05T13:15:09;4.20;99.90
8591;DHT22;4333;48.322;14.340;2022-12-05T13:17:39;4.20;99.90
8591;DHT22;4333;48.322;14.340;2022-12-05T13:20:14;4.20;99.90
8591;DHT22;4333;48.322;14.340;2022-12-05T13:22:41;4.20;99.90
8591;DHT22;4333;48.322;14.340;2022-12-05T13:25:16;4.10;99.90
8591;DHT22;4333;48.322;14.340;2022-12-05T13:27:57;4.10;99.90
8591;DHT22;4333;48.322;14.340;2022-12-05T13:30:27;3.90;99.90
8591;DHT22;4333;48.322;14.340;2022-12-05T13:33:00;4.00;99.90
8591;DHT22;4333;48.322;14.340;2022-12-05T13:35:34;4.10;99.90
8591;DHT22;4333;48.322;14.340;2022-12-05T13:38:31;4.00;99.90
8591;DHT22;4333;48.322;14.340;2022-12-05T13:53:39;3.90;99.90
8591;DHT22;4333;48.322;14.340;2022-12-05T13:58:59;3.90;99.90
8591;DHT22;4333;48.322;14.340;2022-12-05T14:01:39;3.90;99.90
8591;DHT22;4333;48.322;14.340;2022-12-05T14:04:47;3.90;99.90
8591;DHT22;4333;48.322;14.340;2022-12-05T14:07:37;4.00;99.90
8591;DHT22;4333;48.322;14.340;2022-12-05T14:10:09;3.90;99.90
8591;DHT22;4333;48.322;14.340;2022-12-05T14:15:43;4.00;99.90
8591;DHT22;4333;48.322;14.340;2022-12-05T14:24:04;3.90;99.90
8591;DHT22;4333;48.322;14.340;2022-12-05T14:27:11;3.90;99.90
8591;DHT22;4333;48.322;14.340;2022-12-05T14:30:02;3.90;99.90
8591;DHT22;4333;48.322;14.340;2022-12-05T14:32:39;3.80;99.90
8591;DHT22;4333;48.322;14.340;2022-12-05T14:35:30;3.80;99.90
8591;DHT22;4333;48.322;14.340;2022-12-05T14:41:32;3.80;99.90
8591;DHT22;4333;48.322;14.340;2022-12-05T14:44:02;3.80;99.90
8591;DHT22;4333;48.322;14.340;2022-12-05T14:46:30;3.80;99.90
8591;DHT22;4333;48.322;14.340;2022-12-05T14:52:20;3.80;99.90
8591;DHT22;4333;48.322;14.340;2022-12-05T14:54:51;3.70;99.90
8591;DHT22;4333;48.322;14.340;2022-12-05T14:57:18;3.70;99.90
8591;DHT22;4333;48.322;14.340;2022-12-05T15:00:05;3.70;99.90
8591;DHT22;4333;48.322;14.340;2022-12-05T15:02:38;3.70;99.90
8591;DHT22;4333;48.322;14.340;2022-12-05T15:05:21;3.60;99.90
8591;DHT22;4333;48.322;14.340;2022-12-05T15:07:49;3.60;99.90
8591;DHT22;4333;48.322;14.340;2022-12-05T15:10:35;3.60;99.90
8591;DHT22;4333;48.322;14.340;2022-12-05T15:13:14;3.60;99.90
8591;DHT22;4333;48.322;14.340;2022-12-05T15:18:37;3.60;99.90
8591;DHT22;4333;48.322;14.340;2022-12-05T15:23:45;3.60;99.90
8591;DHT22;4333;48.322;14.340;2022-12-05T15:29:15;3.70;99.90
8591;DHT22;4333;48.322;14.340;2022-12-05T15:39:28;3.70;99.90
8591;DHT22;4333;48.322;14.340;2022-12-05T15:41:56;3.70;99.90
8591;DHT22;4333;48.322;14.340;2022-12-05T15:44:27;3.70;99.90
8591;DHT22;4333;48.322;14.340;2022-12-05T15:46:55;3.70;99.90
8591;DHT22;4333;48.322;14.340;2022-12-05T15:49:28;3.70;99.90
8591;DHT22;4333;48.322;14.340;2022-12-05T15:52:23;3.70;99.90
8591;DHT22;4333;48.322;14.340;2022-12-05T15:54:53;3.70;99.90
8591;DHT22;4333;48.322;14.340;2022-12-05T15:57:48;3.70;99.90
8591;DHT22;4333;48.322;14.340;2022-12-05T16:00:16;3.70;99.90
8591;DHT22;4333;48.322;14.340;2022-12-05T16:02:56;3.60;99.90
8591;DHT22;4333;48.322;14.340;2022-12-05T16:07:51;3.60;99.90
8591;DHT22;4333;48.322;14.340;2022-12-05T16:10:19;3.60;99.90
8591;DHT22;4333;48.322;14.340;2022-12-05T16:12:49;3.70;99.90
8591;DHT22;4333;48.322;14.340;2022-12-05T16:15:25;3.70;99.90
8591;DHT22;4333;48.322;14.340;2022-12-05T16:17:57;3.70;99.90
8591;DHT22;4333;48.322;14.340;2022-12-05T16:20:31;3.70;99.90
8591;DHT22;4333;48.322;14.340;2022-12-05T16:23:04;3.70;99.90
8591;DHT22;4333;48.322;14.340;2022-12-05T16:25:37;3.70;99.90
8591;DHT22;4333;48.322;14.340;2022-12-05T16:28:14;3.70;99.90
8591;DHT22;4333;48.322;14.340;2022-12-05T16:30:58;3.80;99.90
8591;DHT22;4333;48.322;14.340;2022-12-05T16:33:27;3.80;99.90
8591;DHT22;4333;48.322;14.340;2022-12-05T16:36:12;3.80;99.90
8591;DHT22;4333;48.322;14.340;2022-12-05T16:38:38;3.80;99.90
8591;DHT22;4333;48.322;14.340;2022-12-05T16:41:07;3.80;99.90
8591;DHT22;4333;48.322;14.340;2022-12-05T16:48:44;3.70;99.90
8591;DHT22;4333;48.322;14.340;2022-12-05T16:51:39;3.70;99.90
8591;DHT22;4333;48.322;14.340;2022-12-05T16:54:06;3.70;99.90
8591;DHT22;4333;48.322;14.340;2022-12-05T16:56:32;3.70;99.90
8591;DHT22;4333;48.322;14.340;2022-12-05T16:59:05;3.70;99.90
8591;DHT22;4333;48.322;14.340;2022-12-05T17:01:43;3.70;99.90
8591;DHT22;4333;48.322;14.340;2022-12-05T17:04:09;3.70;99.90
8591;DHT22;4333;48.322;14.340;2022-12-05T17:06:35;3.60;99.90
8591;DHT22;4333;48.322;14.340;2022-12-05T17:09:04;3.70;99.90
8591;DHT22;4333;48.322;14.340;2022-12-05T17:11:33;3.70;99.90
8591;DHT22;4333;48.322;14.340;2022-12-05T17:14:01;3.70;99.90
8591;DHT22;4333;48.322;14.340;2022-12-05T17:16:28;3.70;99.90
8591;DHT22;4333;48.322;14.340;2022-12-05T17:18:54;3.60;99.90
8591;DHT22;4333;48.322;14.340;2022-12-05T17:21:28;3.60;99.90
8591;DHT22;4333;48.322;14.340;2022-12-05T17:23:58;3.60;99.90
8591;DHT22;4333;48.322;14.340;2022-12-05T17:26:26;3.70;99.90
8591;DHT22;4333;48.322;14.340;2022-12-05T17:28:52;3.60;99.90
8591;DHT22;4333;48.322;14.340;2022-12-05T17:31:23;3.60;99.90
8591;DHT22;4333;48.322;14.340;2022-12-05T17:33:50;3.70;99.90
8591;DHT22;4333;48.322;14.340;2022-12-05T17:36:17;3.70;99.90
8591;DHT22;4333;48.322;14.340;2022-12-05T17:38:45;3.70;99.90
8591;DHT22;4333;48.322;14.340;2022-12-05T17:41:19;3.70;99.90
8591;DHT22;4333;48.322;14.340;2022-12-05T17:43:46;3.60;99.90
8591;DHT22;4333;48.322;14.340;2022-12-05T17:46:16;3.50;99.90
8591;DHT22;4333;48.322;14.340;2022-12-05T17:48:41;3.40;99.90
8591;DHT22;4333;48.322;14.340;2022-12-05T17:51:08;3.40;99.90
8591;DHT22;4333;48.322;14.340;2022-12-05T17:53:39;3.40;99.90
8591;DHT22;4333;48.322;14.340;2022-12-05T17:56:05;3.40;99.90
8591;DHT22;4333;48.322;14.340;2022-12-05T17:58:34;3.40;99.90
8591;DHT22;4333;48.322;14.340;2022-12-05T18:01:03;3.50;99.90
8591;DHT22;4333;48.322;14.340;2022-12-05T18:03:30;3.50;99.90
8591;DHT22;4333;48.322;14.340;2022-12-05T18:05:59;3.50;99.90
8591;DHT22;4333;48.322;14.340;2022-12-05T18:08:30;3.60;99.90
8591;DHT22;4333;48.322;14.340;2022-12-05T18:10:58;3.60;99.90
8591;DHT22;4333;48.322;14.340;2022-12-05T18:13:31;3.60;99.90
8591;DHT22;4333;48.322;14.340;2022-12-05T18:16:01;3.50;99.90
8591;DHT22;4333;48.322;14.340;2022-12-05T18:18:29;3.60;99.90
8591;DHT22;4333;48.322;14.340;2022-12-05T18:21:11;3.60;99.90
8591;DHT22;4333;48.322;14.340;2022-12-05T18:23:47;3.60;99.90
8591;DHT22;4333;48.322;14.340;2022-12-05T18:26:19;3.60;99.90
8591;DHT22;4333;48.322;14.340;2022-12-05T18:28:46;3.50;99.90
8591;DHT22;4333;48.322;14.340;2022-12-05T18:31:15;3.50;99.90
8591;DHT22;4333;48.322;14.340;2022-12-05T18:33:45;3.50;99.90
8591;DHT22;4333;48.322;14.340;2022-12-05T18:36:17;3.50;99.90
8591;DHT22;4333;48.322;14.340;2022-12-05T18:38:53;3.50;99.90
8591;DHT22;4333;48.322;14.340;2022-12-05T18:41:19;3.40;99.90
8591;DHT22;4333;48.322;14.340;2022-12-05T18:43:48;3.30;99.90
8591;DHT22;4333;48.322;14.340;2022-12-05T18:46:15;3.20;99.90
8591;DHT22;4333;48.322;14.340;2022-12-05T18:48:44;3.20;99.90
8591;DHT22;4333;48.322;14.340;2022-12-05T18:51:21;3.10;99.90
8591;DHT22;4333;48.322;14.340;2022-12-05T18:53:52;3.00;99.90
8591;DHT22;4333;48.322;14.340;2022-12-05T18:56:21;3.00;99.90
8591;DHT22;4333;48.322;14.340;2022-12-05T18:58:55;3.00;99.90
8591;DHT22;4333;48.322;14.340;2022-12-05T19:01:21;3.00;99.90
8591;DHT22;4333;48.322;14.340;2022-12-05T19:03:47;2.90;99.90
8591;DHT22;4333;48.322;14.340;2022-12-05T19:06:14;2.70;99.90
8591;DHT22;4333;48.322;14.340;2022-12-05T19:08:40;2.60;99.90
8591;DHT22;4333;48.322;14.340;2022-12-05T19:11:07;2.40;99.90
8591;DHT22;4333;48.322;14.340;2022-12-05T19:13:33;2.30;99.90
8591;DHT22;4333;48.322;14.340;2022-12-05T19:16:03;2.10;99.90
8591;DHT22;4333;48.322;14.340;2022-12-05T19:18:29;2.00;99.90
8591;DHT22;4333;48.322;14.340;2022-12-05T19:20:56;2.00;99.90
8591;DHT22;4333;48.322;14.340;2022-12-05T19:23:24;1.80;99.90
8591;DHT22;4333;48.322;14.340;2022-12-05T19:26:08;1.70;99.90
8591;DHT22;4333;48.322;14.340;2022-12-05T19:28:35;1.50;99.90
8591;DHT22;4333;48.322;14.340;2022-12-05T19:31:14;1.40;99.90
8591;DHT22;4333;48.322;14.340;2022-12-05T19:33:47;1.30;99.90
8591;DHT22;4333;48.322;14.340;2022-12-05T19:36:18;1.20;99.90
8591;DHT22;4333;48.322;14.340;2022-12-05T19:38:46;1.20;99.90
8591;DHT22;4333;48.322;14.340;2022-12-05T19:41:17;1.30;99.90
8591;DHT22;4333;48.322;14.340;2022-12-05T19:43:45;1.30;99.90
8591;DHT22;4333;48.322;14.340;2022-12-05T19:46:16;1.30;99.90
8591;DHT22;4333;48.322;14.340;2022-12-05T19:48:44;1.20;99.90